Zefira — 9HA2459 — position and weather

sailwx.info

Track history (hours):
 
Tides and Currents Weather Stations Pressure Air Temp Water Temp Dewpoint Dewpoint Depression Visibility Wind Speed Wind Dir Waves Ship Positions

Zefira

Last reported at 2016-Sep-29 14:33 UTC. Time now 2016-Sep-29 15:16 UTC.
Position N 44°25' E 008°55'.

Length 50 m; draft 4.9 m.

Type: Pleasure craft. MMSI: 248663000.

Date/timePositionNaut miles runAvg speedWind from/ knotsBaromVisibWave heightAir tempDewpointWater temp
2016-Sep-29 14:33N 44°25' E 008°55'0 0.0
2016-Sep-29 13:33N 44°25' E 008°55'0 0.0
2016-Sep-29 08:33N 44°25' E 008°55'0 0.0
2016-Sep-29 07:33N 44°25' E 008°55'0 0.0
2016-Sep-29 00:33N 44°25' E 008°55'0 0.0
2016-Sep-28 21:33N 44°25' E 008°55'0 0.0
2016-Sep-28 19:33N 44°25' E 008°55'0 0.0
2016-Sep-28 16:33N 44°25' E 008°55'0 0.0
2016-Sep-28 15:33N 44°25' E 008°55'0 0.0
2016-Sep-28 12:33N 44°25' E 008°55'0 0.0
2016-Sep-28 08:33N 44°25' E 008°55'0 0.0
2016-Sep-28 03:33N 44°25' E 008°55'0 0.0
2016-Sep-28 02:33N 44°25' E 008°55'0 0.0
2016-Sep-28 01:33N 44°25' E 008°55'0 0.0
2016-Sep-27 23:33N 44°25' E 008°55'0 0.0
2016-Sep-27 19:33N 44°25' E 008°55'0 0.0
2016-Sep-27 14:33N 44°25' E 008°55'0 0.0
2016-Sep-27 13:33N 44°25' E 008°55'0 0.0
2016-Sep-27 10:33N 44°25' E 008°55'0 0.0
2016-Sep-27 00:33N 44°25' E 008°55'0 0.0
2016-Sep-26 20:33N 44°25' E 008°55'0 0.0
2016-Sep-26 19:33N 44°25' E 008°55'0 0.0
2016-Sep-26 15:33N 44°25' E 008°55'0 0.0
2016-Sep-26 13:33N 44°25' E 008°55'0 0.0
2016-Sep-26 11:33N 44°25' E 008°55'0 0.0
2016-Sep-26 08:33N 44°25' E 008°55'0 0.0
2016-Sep-26 02:33N 44°25' E 008°55'0 0.0
2016-Sep-26 01:33N 44°25' E 008°55'0 0.0
2016-Sep-26 00:33N 44°25' E 008°55'0 0.0
2016-Sep-25 21:33N 44°25' E 008°55'0 0.0
2016-Sep-25 17:33N 44°25' E 008°55'0 0.0
2016-Sep-25 16:33N 44°25' E 008°55'0 0.0
2016-Sep-25 15:33N 44°25' E 008°55'0 0.0
2016-Sep-25 14:33N 44°25' E 008°55'0 0.0
2016-Sep-25 12:33N 44°25' E 008°55'0 0.0
2016-Sep-25 11:33N 44°25' E 008°55'0 0.0
2016-Sep-25 10:33N 44°25' E 008°55'0 0.0
2016-Sep-25 09:33N 44°25' E 008°55'0 0.0
2016-Sep-25 07:33N 44°25' E 008°55'0 0.0
2016-Sep-25 04:33N 44°25' E 008°55'0 0.0
2016-Sep-25 00:33N 44°25' E 008°55'0 0.0
2016-Sep-24 22:33N 44°25' E 008°55'0 0.0
2016-Sep-24 21:33N 44°25' E 008°55'0 0.0
2016-Sep-24 19:33N 44°25' E 008°55'0 0.0
2016-Sep-24 18:33N 44°25' E 008°55'0 0.0
2016-Sep-24 17:33N 44°25' E 008°55'0 0.0
2016-Sep-24 16:33N 44°25' E 008°55'0 0.0
2016-Sep-24 14:33N 44°25' E 008°55'0 0.0
2016-Sep-24 12:33N 44°25' E 008°55'0 0.0
2016-Sep-24 10:33N 44°25' E 008°55'0 0.0
2016-Sep-24 09:33N 44°25' E 008°55'0 0.0
2016-Sep-24 03:33N 44°25' E 008°55'0 0.0
2016-Sep-24 02:33N 44°25' E 008°55'0 0.0
2016-Sep-24 01:33N 44°25' E 008°55'0 0.0
2016-Sep-24 00:33N 44°25' E 008°55'0 0.0
2016-Sep-23 19:33N 44°25' E 008°55'0 0.0
2016-Sep-23 17:33N 44°25' E 008°55'0 0.0
2016-Sep-23 16:33N 44°25' E 008°55'0 0.0
2016-Sep-23 15:33N 44°25' E 008°55'0 0.0
2016-Sep-23 13:33N 44°25' E 008°55'0 0.0
2016-Sep-23 09:33N 44°25' E 008°55'0 0.0
2016-Sep-23 06:33N 44°25' E 008°55'0 0.0
2016-Sep-23 04:33N 44°25' E 008°55'0 0.0
2016-Sep-23 03:33N 44°25' E 008°55'0 0.0
2016-Sep-23 02:33N 44°25' E 008°55'0 0.0
2016-Sep-23 01:33N 44°25' E 008°55'0 0.0
2016-Sep-23 00:33N 44°25' E 008°55'0 0.0
2016-Sep-22 23:33N 44°25' E 008°55'0 0.0
2016-Sep-22 20:33N 44°25' E 008°55'13 1.7
2016-Sep-22 12:33N 44°12' E 009°03'66 8.2
2016-Sep-22 04:33N 43°22' E 010°01'10 9.6
2016-Sep-22 03:33N 43°14' E 010°08'363 8.9
2016-Sep-20 10:34N 38°37' E 015°19'18 9.1
2016-Sep-20 08:33N 38°19' E 015°16'5 4.8
2016-Sep-20 07:28N 38°14' E 015°15'0 0.0
2016-Sep-20 06:28N 38°14' E 015°15'0 0.0
2016-Sep-20 02:28N 38°14' E 015°15'0 0.0
2016-Sep-19 23:28N 38°14' E 015°15'0 0.0
2016-Sep-19 19:28N 38°14' E 015°15'0 0.0
2016-Sep-19 18:28N 38°14' E 015°15'0 0.0
2016-Sep-19 16:28N 38°14' E 015°15'  
Track history (hours):
 
Tides and Currents Weather Stations Pressure Air Temp Water Temp Dewpoint Dewpoint Depression Visibility Wind Speed Wind Dir Waves Ship Positions

Zefira

Last reported at 2016-Sep-29 14:33 UTC. Time now 2016-Sep-29 15:16 UTC.
Position N 44°25' E 008°55'.

Length 50 m; draft 4.9 m.

Type: Pleasure craft. MMSI: 248663000.

Date/timePositionNaut miles runAvg speedWind from/ knotsBaromVisibWave heightAir tempDewpointWater temp
2016-Sep-29 14:33N 44°25' E 008°55'0 0.0
2016-Sep-29 13:33N 44°25' E 008°55'0 0.0
2016-Sep-29 08:33N 44°25' E 008°55'0 0.0
2016-Sep-29 07:33N 44°25' E 008°55'0 0.0
2016-Sep-29 00:33N 44°25' E 008°55'0 0.0
2016-Sep-28 21:33N 44°25' E 008°55'0 0.0
2016-Sep-28 19:33N 44°25' E 008°55'0 0.0
2016-Sep-28 16:33N 44°25' E 008°55'0 0.0
2016-Sep-28 15:33N 44°25' E 008°55'0 0.0
2016-Sep-28 12:33N 44°25' E 008°55'0 0.0
2016-Sep-28 08:33N 44°25' E 008°55'0 0.0
2016-Sep-28 03:33N 44°25' E 008°55'0 0.0
2016-Sep-28 02:33N 44°25' E 008°55'0 0.0
2016-Sep-28 01:33N 44°25' E 008°55'0 0.0
2016-Sep-27 23:33N 44°25' E 008°55'0 0.0
2016-Sep-27 19:33N 44°25' E 008°55'0 0.0
2016-Sep-27 14:33N 44°25' E 008°55'0 0.0
2016-Sep-27 13:33N 44°25' E 008°55'0 0.0
2016-Sep-27 10:33N 44°25' E 008°55'0 0.0
2016-Sep-27 00:33N 44°25' E 008°55'0 0.0
2016-Sep-26 20:33N 44°25' E 008°55'0 0.0
2016-Sep-26 19:33N 44°25' E 008°55'0 0.0
2016-Sep-26 15:33N 44°25' E 008°55'0 0.0
2016-Sep-26 13:33N 44°25' E 008°55'0 0.0
2016-Sep-26 11:33N 44°25' E 008°55'0 0.0
2016-Sep-26 08:33N 44°25' E 008°55'0 0.0
2016-Sep-26 02:33N 44°25' E 008°55'0 0.0
2016-Sep-26 01:33N 44°25' E 008°55'0 0.0
2016-Sep-26 00:33N 44°25' E 008°55'0 0.0
2016-Sep-25 21:33N 44°25' E 008°55'0 0.0
2016-Sep-25 17:33N 44°25' E 008°55'0 0.0
2016-Sep-25 16:33N 44°25' E 008°55'0 0.0
2016-Sep-25 15:33N 44°25' E 008°55'0 0.0
2016-Sep-25 14:33N 44°25' E 008°55'0 0.0
2016-Sep-25 12:33N 44°25' E 008°55'0 0.0
2016-Sep-25 11:33N 44°25' E 008°55'0 0.0
2016-Sep-25 10:33N 44°25' E 008°55'0 0.0
2016-Sep-25 09:33N 44°25' E 008°55'0 0.0
2016-Sep-25 07:33N 44°25' E 008°55'0 0.0
2016-Sep-25 04:33N 44°25' E 008°55'0 0.0
2016-Sep-25 00:33N 44°25' E 008°55'0 0.0
2016-Sep-24 22:33N 44°25' E 008°55'0 0.0
2016-Sep-24 21:33N 44°25' E 008°55'0 0.0
2016-Sep-24 19:33N 44°25' E 008°55'0 0.0
2016-Sep-24 18:33N 44°25' E 008°55'0 0.0
2016-Sep-24 17:33N 44°25' E 008°55'0 0.0
2016-Sep-24 16:33N 44°25' E 008°55'0 0.0
2016-Sep-24 14:33N 44°25' E 008°55'0 0.0
2016-Sep-24 12:33N 44°25' E 008°55'0 0.0
2016-Sep-24 10:33N 44°25' E 008°55'0 0.0
2016-Sep-24 09:33N 44°25' E 008°55'0 0.0
2016-Sep-24 03:33N 44°25' E 008°55'0 0.0
2016-Sep-24 02:33N 44°25' E 008°55'0 0.0
2016-Sep-24 01:33N 44°25' E 008°55'0 0.0
2016-Sep-24 00:33N 44°25' E 008°55'0 0.0
2016-Sep-23 19:33N 44°25' E 008°55'0 0.0
2016-Sep-23 17:33N 44°25' E 008°55'0 0.0
2016-Sep-23 16:33N 44°25' E 008°55'0 0.0
2016-Sep-23 15:33N 44°25' E 008°55'0 0.0
2016-Sep-23 13:33N 44°25' E 008°55'0 0.0
2016-Sep-23 09:33N 44°25' E 008°55'0 0.0
2016-Sep-23 06:33N 44°25' E 008°55'0 0.0
2016-Sep-23 04:33N 44°25' E 008°55'0 0.0
2016-Sep-23 03:33N 44°25' E 008°55'0 0.0
2016-Sep-23 02:33N 44°25' E 008°55'0 0.0
2016-Sep-23 01:33N 44°25' E 008°55'0 0.0
2016-Sep-23 00:33N 44°25' E 008°55'0 0.0
2016-Sep-22 23:33N 44°25' E 008°55'0 0.0
2016-Sep-22 20:33N 44°25' E 008°55'13 1.7
2016-Sep-22 12:33N 44°12' E 009°03'66 8.2
2016-Sep-22 04:33N 43°22' E 010°01'10 9.6
2016-Sep-22 03:33N 43°14' E 010°08'363 8.9
2016-Sep-20 10:34N 38°37' E 015°19'18 9.1
2016-Sep-20 08:33N 38°19' E 015°16'5 4.8
2016-Sep-20 07:28N 38°14' E 015°15'0 0.0
2016-Sep-20 06:28N 38°14' E 015°15'0 0.0
2016-Sep-20 02:28N 38°14' E 015°15'0 0.0
2016-Sep-19 23:28N 38°14' E 015°15'0 0.0
2016-Sep-19 19:28N 38°14' E 015°15'0 0.0
2016-Sep-19 18:28N 38°14' E 015°15'0 0.0
2016-Sep-19 16:28N 38°14' E 015°15'  

Dump ship's entire track history